createdAt,value
2023-04-24T00:01:18.002Z,66.56
2023-04-24T00:03:45.259Z,66.72
2023-04-24T00:06:12.339Z,66.70
2023-04-24T00:08:39.368Z,66.65
2023-04-24T00:11:06.466Z,66.58
2023-04-24T00:13:34.217Z,66.22
2023-04-24T00:16:04.338Z,66.00
2023-04-24T00:18:31.243Z,65.48
2023-04-24T00:20:58.234Z,65.90
2023-04-24T00:23:25.308Z,66.20
2023-04-24T00:25:52.329Z,65.65
2023-04-24T00:28:48.007Z,64.21
2023-04-24T00:31:15.052Z,66.21
2023-04-24T00:33:42.397Z,66.39
2023-04-24T00:36:09.804Z,66.25
2023-04-24T00:38:36.800Z,66.16
2023-04-24T00:41:04.326Z,67.18
2023-04-24T00:43:31.377Z,66.87
2023-04-24T00:46:00.560Z,66.16
2023-04-24T00:48:28.552Z,67.92
2023-04-24T00:50:55.580Z,67.15
2023-04-24T00:53:22.941Z,67.18
2023-04-24T00:55:49.990Z,67.28
2023-04-24T00:58:20.406Z,67.15
2023-04-24T01:00:49.323Z,67.27
2023-04-24T01:03:18.241Z,67.19
2023-04-24T01:05:45.408Z,67.05
2023-04-24T01:08:12.652Z,66.47
2023-04-24T01:10:41.614Z,66.97
2023-04-24T01:13:09.422Z,67.02
2023-04-24T01:15:36.630Z,66.64
2023-04-24T01:18:04.617Z,66.68
2023-04-24T01:20:32.865Z,67.51
2023-04-24T01:22:59.975Z,67.52
2023-04-24T01:25:28.901Z,67.23
2023-04-24T01:27:58.084Z,67.74
2023-04-24T01:30:26.272Z,67.51
2023-04-24T01:32:54.213Z,66.91
2023-04-24T01:35:21.525Z,67.17
2023-04-24T01:37:48.560Z,66.50
2023-04-24T01:40:15.779Z,66.53
2023-04-24T01:42:43.505Z,67.04
2023-04-24T01:45:13.934Z,66.89
2023-04-24T01:47:41.209Z,67.03
2023-04-24T01:50:09.224Z,67.09
2023-04-24T01:52:37.031Z,67.17
2023-04-24T01:55:06.015Z,66.60
2023-04-24T01:57:33.985Z,66.78
2023-04-24T02:00:00.993Z,66.57
2023-04-24T02:02:30.819Z,66.83
2023-04-24T02:04:58.300Z,66.72
2023-04-24T02:07:25.474Z,66.39
2023-04-24T02:09:52.417Z,66.51
2023-04-24T02:12:19.938Z,66.39
2023-04-24T02:14:46.974Z,66.85
2023-04-24T02:17:15.020Z,66.97
2023-04-24T02:19:42.222Z,66.28
2023-04-24T02:22:11.498Z,66.65
2023-04-24T02:24:39.763Z,66.85
2023-04-24T02:27:07.555Z,67.01
2023-04-24T02:29:34.639Z,66.91
2023-04-24T02:32:01.628Z,67.04
2023-04-24T02:34:28.597Z,67.28
2023-04-24T02:36:55.728Z,66.76
2023-04-24T02:39:22.739Z,67.49
2023-04-24T02:41:49.717Z,66.58
2023-04-24T02:44:21.203Z,67.37
2023-04-24T02:46:48.067Z,65.45
2023-04-24T02:49:15.049Z,68.35
2023-04-24T02:51:42.232Z,67.44
2023-04-24T02:54:10.871Z,67.26
2023-04-24T02:56:37.983Z,67.83
2023-04-24T02:59:06.977Z,67.88
2023-04-24T03:01:34.551Z,68.03
2023-04-24T03:04:02.539Z,67.80
2023-04-24T03:06:29.845Z,67.75
2023-04-24T03:08:56.794Z,67.77
2023-04-24T03:11:23.765Z,67.78
2023-04-24T03:13:50.686Z,67.68
2023-04-24T03:16:17.631Z,68.11
2023-04-24T03:18:44.625Z,68.89
2023-04-24T03:21:12.485Z,68.42
2023-04-24T03:23:39.436Z,69.46
2023-04-24T03:26:06.630Z,69.93
2023-04-24T03:28:35.163Z,69.43
2023-04-24T03:31:04.939Z,68.56
2023-04-24T03:33:36.991Z,68.29
2023-04-24T03:36:05.904Z,67.83
2023-04-24T03:38:38.117Z,68.80
2023-04-24T03:41:23.564Z,68.71
2023-04-24T03:43:54.798Z,68.57
2023-04-24T03:46:21.864Z,68.43
2023-04-24T03:48:54.522Z,67.95
2023-04-24T03:51:26.297Z,67.99
2023-04-24T03:53:56.883Z,67.72
2023-04-24T03:56:26.389Z,67.96
2023-04-24T03:58:53.536Z,68.25
2023-04-24T04:01:21.706Z,68.06
2023-04-24T04:03:56.245Z,67.86
2023-04-24T04:06:25.554Z,68.79
2023-04-24T04:10:08.602Z,67.30
2023-04-24T04:12:37.559Z,68.61
2023-04-24T04:15:06.863Z,68.08
2023-04-24T04:17:34.433Z,68.07
2023-04-24T04:20:05.040Z,68.29
2023-04-24T04:22:32.463Z,68.47
2023-04-24T04:25:01.078Z,67.88
2023-04-24T04:27:33.078Z,68.26
2023-04-24T04:30:08.249Z,68.43
2023-04-24T04:32:43.317Z,68.61
2023-04-24T04:35:10.945Z,68.69
2023-04-24T04:37:39.097Z,68.17
2023-04-24T04:40:31.695Z,69.05
2023-04-24T04:43:03.519Z,68.47
2023-04-24T04:45:39.779Z,69.85
2023-04-24T04:48:20.286Z,68.73
2023-04-24T04:50:47.339Z,68.87
2023-04-24T04:53:14.991Z,68.28
2023-04-24T04:55:43.048Z,69.59
2023-04-24T04:58:15.659Z,69.07
2023-04-24T05:00:43.759Z,69.00
2023-04-24T05:03:21.489Z,68.65
2023-04-24T05:05:54.114Z,68.69
2023-04-24T05:08:27.121Z,68.95
2023-04-24T05:10:56.197Z,68.45
2023-04-24T05:13:35.592Z,68.47
2023-04-24T05:16:08.869Z,68.40
2023-04-24T05:18:36.637Z,69.08
2023-04-24T05:21:04.139Z,69.25
2023-04-24T05:23:31.512Z,68.57
2023-04-24T05:25:58.579Z,69.19
2023-04-24T05:28:29.193Z,69.64
2023-04-24T05:31:05.099Z,69.52
2023-04-24T05:33:32.081Z,69.49
2023-04-24T05:35:59.119Z,69.83
2023-04-24T05:38:26.062Z,69.99
2023-04-24T05:40:53.057Z,70.27
2023-04-24T05:43:20.724Z,70.36
2023-04-24T05:45:47.683Z,69.83
2023-04-24T05:48:14.659Z,69.87
2023-04-24T05:50:41.658Z,70.52
2023-04-24T05:53:08.886Z,69.94
2023-04-24T05:55:37.794Z,69.52
2023-04-24T05:58:04.778Z,70.48
2023-04-24T06:00:34.039Z,70.06
2023-04-24T06:03:06.511Z,70.13
2023-04-24T06:05:33.815Z,70.53
2023-04-24T06:08:03.422Z,70.17
2023-04-24T06:10:34.770Z,70.99
2023-04-24T06:13:03.153Z,72.02
2023-04-24T06:15:32.045Z,71.20
2023-04-24T06:18:05.045Z,71.56
2023-04-24T06:20:32.078Z,71.03
2023-04-24T06:22:59.053Z,70.70
2023-04-24T06:25:30.451Z,71.27
2023-04-24T06:27:57.824Z,71.73
2023-04-24T06:30:24.883Z,70.94
2023-04-24T06:32:52.240Z,70.59
2023-04-24T06:35:19.293Z,70.64
2023-04-24T06:37:46.946Z,71.21
2023-04-24T06:40:14.002Z,70.85
2023-04-24T06:42:40.945Z,71.26
2023-04-24T06:45:09.834Z,71.43
2023-04-24T06:47:36.989Z,71.25
2023-04-24T06:50:04.346Z,70.72
2023-04-24T06:52:33.792Z,71.12
2023-04-24T06:55:04.898Z,72.35
2023-04-24T06:57:32.992Z,72.26
2023-04-24T06:59:59.985Z,72.91
2023-04-24T07:02:27.093Z,73.99
2023-04-24T07:04:54.176Z,73.08
2023-04-24T07:07:23.554Z,74.08
2023-04-24T07:09:51.917Z,73.42
2023-04-24T07:12:21.493Z,73.47
2023-04-24T07:14:48.965Z,73.32
2023-04-24T07:17:15.981Z,73.33
2023-04-24T07:19:43.538Z,73.62
2023-04-24T07:22:12.494Z,73.99
2023-04-24T07:24:39.447Z,74.10
2023-04-24T07:27:06.572Z,74.68
2023-04-24T07:29:33.560Z,74.51
2023-04-24T07:32:02.713Z,73.36
2023-04-24T07:34:31.014Z,73.29
2023-04-24T07:36:58.180Z,73.23
2023-04-24T07:39:25.394Z,73.26
2023-04-24T07:41:52.511Z,73.08
2023-04-24T07:44:19.424Z,73.54
2023-04-24T07:46:46.541Z,73.39
2023-04-24T07:49:14.875Z,72.92
2023-04-24T07:51:43.060Z,72.98
2023-04-24T07:54:10.545Z,73.29
2023-04-24T07:56:40.050Z,73.47
2023-04-24T07:59:07.433Z,72.81
2023-04-24T08:01:34.408Z,73.96
2023-04-24T08:04:01.650Z,73.70
2023-04-24T08:06:31.257Z,73.69
2023-04-24T08:08:59.309Z,73.14
2023-04-24T08:11:27.486Z,74.39
2023-04-24T08:13:55.685Z,74.64
2023-04-24T08:16:24.786Z,73.99
2023-04-24T08:18:52.469Z,74.41
2023-04-24T08:21:19.718Z,74.87
2023-04-24T08:23:47.467Z,74.75
2023-04-24T08:26:14.964Z,75.08
2023-04-24T08:28:41.957Z,75.77
2023-04-24T08:31:09.042Z,74.93
2023-04-24T08:33:36.162Z,75.34
2023-04-24T08:36:05.783Z,74.98
2023-04-24T08:38:33.409Z,74.68
2023-04-24T08:41:02.004Z,74.23
2023-04-24T08:43:29.353Z,74.17
2023-04-24T08:45:58.042Z,73.42
2023-04-24T08:48:31.385Z,73.53
2023-04-24T08:51:00.486Z,72.62
2023-04-24T08:53:28.223Z,72.40
2023-04-24T08:55:57.604Z,72.00
2023-04-24T08:58:27.521Z,72.19
2023-04-24T09:00:58.856Z,71.99
2023-04-24T09:03:28.627Z,72.67
2023-04-24T09:05:56.778Z,72.02
2023-04-24T09:08:28.978Z,72.38
2023-04-24T09:10:55.939Z,72.08
2023-04-24T09:13:23.085Z,72.24
2023-04-24T09:15:50.310Z,72.00
2023-04-24T09:18:20.450Z,72.02
2023-04-24T09:21:04.575Z,71.12
2023-04-24T09:23:33.365Z,71.96
2023-04-24T09:26:03.005Z,71.75
2023-04-24T09:28:47.902Z,70.77
2023-04-24T09:31:20.315Z,70.75
2023-04-24T09:34:09.746Z,70.78
2023-04-24T09:36:39.121Z,70.33
2023-04-24T09:39:16.496Z,70.83
2023-04-24T09:42:03.934Z,69.98
2023-04-24T09:44:30.916Z,70.42
2023-04-24T09:47:00.998Z,70.69
2023-04-24T09:49:34.262Z,70.85
2023-04-24T09:52:07.490Z,70.46
2023-04-24T09:54:34.590Z,70.77
2023-04-24T09:57:01.523Z,70.32
2023-04-24T09:59:28.986Z,70.43
2023-04-24T10:01:56.513Z,70.12
2023-04-24T10:04:26.025Z,70.05
2023-04-24T10:06:55.167Z,69.71
2023-04-24T10:09:27.658Z,69.20
2023-04-24T10:11:55.881Z,69.36
2023-04-24T10:14:26.019Z,68.67
2023-04-24T10:16:55.973Z,68.85
2023-04-24T10:19:26.979Z,68.89
2023-04-24T10:21:55.541Z,69.07
2023-04-24T10:24:22.749Z,68.26
2023-04-24T10:26:49.947Z,68.19
2023-04-24T10:29:20.107Z,68.31
2023-04-24T10:31:47.740Z,68.52
2023-04-24T10:34:18.875Z,68.99
2023-04-24T10:36:58.197Z,69.14
2023-04-24T10:39:27.600Z,68.74
2023-04-24T10:41:58.817Z,68.80
2023-04-24T10:44:26.318Z,68.98
2023-04-24T10:46:57.265Z,69.14
2023-04-24T10:49:32.610Z,69.54
2023-04-24T10:52:08.682Z,69.76
2023-04-24T10:54:41.657Z,69.77
2023-04-24T10:57:35.025Z,69.92
2023-04-24T11:00:21.639Z,69.78
2023-04-24T11:02:51.400Z,70.46
2023-04-24T11:05:20.172Z,70.17
2023-04-24T11:08:17.117Z,70.19
2023-04-24T11:10:55.951Z,70.27
2023-04-24T11:13:24.241Z,70.68
2023-04-24T11:16:21.902Z,70.86
2023-04-24T11:19:17.557Z,71.14
2023-04-24T11:21:56.410Z,71.21
2023-04-24T11:24:36.314Z,70.23
2023-04-24T11:27:17.984Z,69.66
2023-04-24T11:29:58.553Z,68.97
2023-04-24T11:32:31.692Z,68.51
2023-04-24T11:35:17.133Z,68.20
2023-04-24T11:37:49.509Z,67.48
2023-04-24T11:40:26.556Z,67.36
2023-04-24T11:42:58.142Z,67.63
2023-04-24T11:45:31.212Z,67.50
2023-04-24T11:47:59.776Z,67.73
2023-04-24T11:50:28.833Z,67.73
2023-04-24T11:52:57.017Z,67.18
2023-04-24T11:55:27.620Z,67.83
2023-04-24T11:58:00.665Z,67.86
2023-04-24T12:00:32.020Z,66.82
2023-04-24T12:03:11.373Z,66.39
2023-04-24T12:05:40.074Z,66.89
2023-04-24T12:08:07.755Z,66.42
2023-04-24T12:10:35.870Z,67.07
2023-04-24T12:13:03.600Z,67.70
2023-04-24T12:15:31.047Z,67.07
2023-04-24T12:17:58.643Z,67.01
2023-04-24T12:20:33.775Z,67.04
2023-04-24T12:23:02.097Z,66.45
2023-04-24T12:25:30.768Z,65.62
2023-04-24T12:28:07.368Z,65.90
2023-04-24T12:30:40.988Z,65.81
2023-04-24T12:33:08.059Z,65.64
2023-04-24T12:35:36.574Z,65.67
2023-04-24T12:38:09.048Z,65.85
2023-04-24T12:40:36.252Z,66.10
2023-04-24T12:43:13.482Z,66.12
2023-04-24T12:45:40.481Z,66.20
2023-04-24T12:48:07.480Z,65.31
2023-04-24T12:50:34.504Z,65.53
2023-04-24T12:53:01.489Z,66.09
2023-04-24T12:55:28.441Z,65.91
2023-04-24T12:57:56.354Z,65.95
2023-04-24T13:00:23.426Z,65.29
2023-04-24T13:02:50.729Z,67.08
2023-04-24T13:05:18.031Z,65.38
2023-04-24T13:07:44.967Z,65.50
2023-04-24T13:10:12.107Z,64.06
2023-04-24T13:12:39.635Z,64.81
2023-04-24T13:15:08.027Z,64.54
2023-04-24T13:17:35.055Z,64.90
2023-04-24T13:20:02.056Z,65.06
2023-04-24T13:22:28.986Z,63.96
2023-04-24T13:24:57.113Z,65.66
2023-04-24T13:27:24.114Z,65.45
2023-04-24T13:29:51.036Z,64.20
2023-04-24T13:32:18.588Z,64.48
2023-04-24T13:34:45.611Z,63.01
2023-04-24T13:37:12.711Z,63.03
2023-04-24T13:39:39.748Z,60.87
2023-04-24T13:42:06.820Z,60.92
2023-04-24T13:44:33.756Z,60.60
2023-04-24T13:47:01.087Z,62.69
2023-04-24T13:49:28.662Z,64.34
2023-04-24T13:51:56.896Z,64.24
2023-04-24T13:54:26.503Z,63.27
2023-04-24T13:56:53.589Z,62.73
2023-04-24T13:59:22.518Z,61.54
2023-04-24T14:01:49.703Z,60.59
2023-04-24T14:04:16.985Z,60.69
2023-04-24T14:06:44.986Z,61.35
2023-04-24T14:09:12.044Z,60.75
2023-04-24T14:11:39.087Z,61.58
2023-04-24T14:14:06.502Z,61.62
2023-04-24T14:16:33.595Z,59.95
2023-04-24T14:19:00.786Z,59.84
2023-04-24T14:21:27.786Z,59.42
2023-04-24T14:23:54.740Z,60.55
2023-04-24T14:26:21.764Z,59.53
2023-04-24T14:28:48.677Z,59.32
2023-04-24T14:31:15.654Z,59.61
2023-04-24T14:33:42.857Z,60.32
2023-04-24T14:36:10.146Z,59.03
2023-04-24T14:38:37.146Z,60.76
2023-04-24T14:41:13.699Z,61.01
2023-04-24T14:43:41.477Z,60.76
2023-04-24T14:46:08.454Z,59.61
2023-04-24T14:48:35.376Z,59.01
2023-04-24T14:51:02.406Z,59.13
2023-04-24T14:53:29.458Z,60.13
2023-04-24T14:55:56.518Z,60.13
2023-04-24T14:58:23.503Z,60.34
2023-04-24T15:00:55.294Z,60.64
2023-04-24T15:03:23.064Z,60.57
2023-04-24T15:05:51.425Z,60.28
2023-04-24T15:08:18.516Z,61.55
2023-04-24T15:10:45.788Z,61.58
2023-04-24T15:13:12.759Z,61.96
2023-04-24T15:15:39.787Z,62.41
2023-04-24T15:18:09.267Z,62.79
2023-04-24T15:20:38.526Z,62.47
2023-04-24T15:23:08.116Z,62.60
2023-04-24T15:25:35.416Z,62.21
2023-04-24T15:28:02.468Z,62.52
2023-04-24T15:30:30.233Z,62.44
2023-04-24T15:32:57.427Z,62.68
2023-04-24T15:35:24.784Z,62.53
2023-04-24T15:37:51.882Z,62.44
2023-04-24T15:40:18.840Z,61.82
2023-04-24T15:42:46.653Z,62.34
2023-04-24T15:45:13.966Z,62.18
2023-04-24T15:47:41.381Z,62.30
2023-04-24T15:50:14.388Z,62.24
2023-04-24T15:52:42.088Z,62.36
2023-04-24T15:55:12.128Z,62.28
2023-04-24T15:57:39.965Z,62.42
2023-04-24T16:00:07.692Z,62.49
2023-04-24T16:02:39.696Z,62.22
2023-04-24T16:05:11.047Z,62.63
2023-04-24T16:07:39.764Z,62.51
2023-04-24T16:10:07.387Z,62.54
2023-04-24T16:12:34.604Z,62.68
2023-04-24T16:15:01.950Z,62.81
2023-04-24T16:17:29.114Z,62.95
2023-04-24T16:19:56.098Z,63.70
2023-04-24T16:22:23.114Z,63.54
2023-04-24T16:24:50.064Z,63.65
2023-04-24T16:27:17.075Z,64.15
2023-04-24T16:29:44.250Z,64.42
2023-04-24T16:32:11.254Z,65.12
2023-04-24T16:34:38.305Z,65.10
2023-04-24T16:37:06.120Z,65.46
2023-04-24T16:39:33.697Z,64.87
2023-04-24T16:42:01.731Z,64.88
2023-04-24T16:44:28.808Z,64.44
2023-04-24T16:46:55.956Z,64.20
2023-04-24T16:49:23.837Z,64.05
2023-04-24T16:51:51.064Z,63.90
2023-04-24T16:54:18.030Z,63.44
2023-04-24T16:56:44.964Z,63.55
2023-04-24T16:59:12.303Z,63.84
2023-04-24T17:01:39.268Z,63.30
2023-04-24T17:04:06.547Z,63.40
2023-04-24T17:06:33.712Z,63.32
2023-04-24T17:09:00.793Z,63.40
2023-04-24T17:11:29.873Z,63.49
2023-04-24T17:13:59.706Z,63.71
2023-04-24T17:16:27.419Z,63.82
2023-04-24T17:18:54.488Z,63.96
2023-04-24T17:21:21.421Z,64.11
2023-04-24T17:23:48.378Z,63.87
2023-04-24T17:26:16.138Z,63.84
2023-04-24T17:28:43.110Z,64.11
2023-04-24T17:31:10.027Z,63.72
2023-04-24T17:33:36.984Z,64.24
2023-04-24T17:36:04.247Z,64.31
2023-04-24T17:38:31.292Z,64.04
2023-04-24T17:41:00.095Z,64.63
2023-04-24T17:43:27.119Z,64.63
2023-04-24T17:45:59.851Z,65.27
2023-04-24T17:48:27.278Z,65.09
2023-04-24T17:50:54.581Z,65.90
2023-04-24T17:53:22.736Z,65.17
2023-04-24T17:55:49.889Z,64.70
2023-04-24T17:58:18.862Z,64.50
2023-04-24T18:00:45.924Z,64.25
2023-04-24T18:03:13.026Z,65.11
2023-04-24T18:05:40.460Z,64.30
2023-04-24T18:08:07.524Z,63.88
2023-04-24T18:10:37.564Z,64.06
2023-04-24T18:13:05.330Z,64.03
2023-04-24T18:15:32.683Z,64.12
2023-04-24T18:17:59.947Z,63.77
2023-04-24T18:20:27.440Z,64.61
2023-04-24T18:22:54.487Z,64.27
2023-04-24T18:25:26.331Z,64.03
2023-04-24T18:27:54.563Z,63.72
2023-04-24T18:30:23.240Z,64.10
2023-04-24T18:32:53.114Z,63.60
2023-04-24T18:35:21.315Z,64.32
2023-04-24T18:37:49.724Z,64.13
2023-04-24T18:40:17.225Z,64.12
2023-04-24T18:42:44.814Z,64.20
2023-04-24T18:45:14.594Z,64.10
2023-04-24T18:47:42.262Z,64.25
2023-04-24T18:50:10.373Z,64.47
2023-04-24T18:52:37.394Z,63.96
2023-04-24T18:55:06.501Z,64.32
2023-04-24T18:57:33.861Z,64.63
2023-04-24T19:00:00.807Z,65.18
2023-04-24T19:02:28.021Z,64.70
2023-04-24T19:04:55.294Z,64.97
2023-04-24T19:07:22.340Z,64.79
2023-04-24T19:09:49.298Z,64.82
2023-04-24T19:12:16.442Z,64.91
2023-04-24T19:14:43.725Z,65.20
2023-04-24T19:17:11.055Z,65.30
2023-04-24T19:19:38.130Z,64.93
2023-04-24T19:22:05.524Z,64.50
2023-04-24T19:24:35.521Z,64.73
2023-04-24T19:27:02.513Z,64.82
2023-04-24T19:29:29.506Z,65.34
2023-04-24T19:31:58.435Z,65.29
2023-04-24T19:34:26.320Z,65.86
2023-04-24T19:36:53.471Z,65.90
2023-04-24T19:39:20.915Z,65.94
2023-04-24T19:41:47.851Z,65.93
2023-04-24T19:44:17.122Z,66.00
2023-04-24T19:46:44.421Z,65.69
2023-04-24T19:49:11.658Z,65.66
2023-04-24T19:51:38.673Z,65.68
2023-04-24T19:54:06.283Z,66.44
2023-04-24T19:56:34.322Z,66.57
2023-04-24T19:59:01.554Z,67.02
2023-04-24T20:01:28.932Z,66.49
2023-04-24T20:03:56.536Z,65.90
2023-04-24T20:06:23.709Z,66.20
2023-04-24T20:08:51.065Z,66.57
2023-04-24T20:11:18.440Z,65.91
2023-04-24T20:13:45.832Z,66.04
2023-04-24T20:16:13.113Z,67.13
2023-04-24T20:18:40.161Z,66.19
2023-04-24T20:21:08.129Z,67.02
2023-04-24T20:23:35.712Z,65.99
2023-04-24T20:26:04.733Z,67.15
2023-04-24T20:28:31.826Z,67.91
2023-04-24T20:30:59.582Z,67.14
2023-04-24T20:33:28.385Z,67.92
2023-04-24T20:35:55.560Z,67.08
2023-04-24T20:38:22.916Z,66.71
2023-04-24T20:40:57.897Z,66.78
2023-04-24T20:43:29.464Z,66.77
2023-04-24T20:45:57.944Z,67.06
2023-04-24T20:48:26.487Z,66.31
2023-04-24T20:50:53.825Z,65.78
2023-04-24T20:53:21.159Z,66.72
2023-04-24T20:55:48.576Z,66.36
2023-04-24T20:58:18.449Z,65.93
2023-04-24T21:00:46.696Z,66.65
2023-04-24T21:03:16.847Z,66.57
2023-04-24T21:05:44.101Z,66.63
2023-04-24T21:08:11.579Z,66.16
2023-04-24T21:10:38.533Z,66.29
2023-04-24T21:13:05.721Z,66.55
2023-04-24T21:15:33.813Z,66.13
2023-04-24T21:18:02.066Z,65.88
2023-04-24T21:20:29.186Z,66.26
2023-04-24T21:22:56.186Z,66.52
2023-04-24T21:25:23.133Z,66.38
2023-04-24T21:27:50.186Z,66.41
2023-04-24T21:30:17.230Z,66.82
2023-04-24T21:32:44.404Z,67.34
2023-04-24T21:35:11.372Z,66.58
2023-04-24T21:37:39.708Z,66.82
2023-04-24T21:40:08.425Z,66.67
2023-04-24T21:42:35.984Z,66.61
2023-04-24T21:45:03.937Z,66.92
2023-04-24T21:47:32.114Z,66.20
2023-04-24T21:49:59.083Z,66.39
2023-04-24T21:52:26.080Z,66.28
2023-04-24T21:54:53.117Z,66.76
2023-04-24T21:57:20.608Z,66.56
2023-04-24T21:59:47.712Z,66.44
2023-04-24T22:02:14.789Z,66.53
2023-04-24T22:04:42.313Z,66.58
2023-04-24T22:07:09.870Z,66.63
2023-04-24T22:09:36.783Z,66.23
2023-04-24T22:12:05.381Z,66.46
2023-04-24T22:14:32.565Z,66.27
2023-04-24T22:16:59.515Z,66.93
2023-04-24T22:19:28.122Z,66.43
2023-04-24T22:21:55.172Z,66.54
2023-04-24T22:24:22.109Z,66.53
2023-04-24T22:26:49.606Z,66.36
2023-04-24T22:29:16.637Z,66.64
2023-04-24T22:31:44.548Z,66.73
2023-04-24T22:34:11.714Z,66.38
2023-04-24T22:36:38.639Z,66.75
2023-04-24T22:39:05.933Z,66.35
2023-04-24T22:41:32.938Z,66.34
2023-04-24T22:43:59.948Z,66.74
2023-04-24T22:46:26.941Z,66.60
2023-04-24T22:48:54.084Z,66.62
2023-04-24T22:51:21.256Z,66.59
2023-04-24T22:53:49.426Z,67.00
2023-04-24T22:56:17.162Z,66.76
2023-04-24T22:58:44.132Z,67.15
2023-04-24T23:01:11.195Z,66.91
2023-04-24T23:03:38.323Z,67.02
2023-04-24T23:06:05.840Z,66.85
2023-04-24T23:08:32.816Z,66.71
2023-04-24T23:10:59.902Z,66.92
2023-04-24T23:13:27.402Z,66.75
2023-04-24T23:15:54.912Z,66.43
2023-04-24T23:18:21.968Z,66.61
2023-04-24T23:20:49.027Z,66.59
2023-04-24T23:23:16.540Z,66.91
2023-04-24T23:25:43.793Z,66.64
2023-04-24T23:28:10.996Z,66.97
2023-04-24T23:30:37.937Z,67.22
2023-04-24T23:33:05.066Z,67.14
2023-04-24T23:35:32.187Z,67.12
2023-04-24T23:37:59.198Z,67.50
2023-04-24T23:40:26.209Z,66.89
2023-04-24T23:43:05.665Z,66.76
2023-04-24T23:45:34.413Z,65.44
2023-04-24T23:48:01.677Z,67.10
2023-04-24T23:50:28.776Z,66.92
2023-04-24T23:52:55.859Z,66.83
2023-04-24T23:55:22.807Z,67.16
2023-04-24T23:57:49.792Z,67.03
